LELC/MJV METAR and TAF weather

Enter ICAO airport designator
Station Type Date Time Source
LELC METAR 2019/02/23 00:30 UTC NOAA

LELC 230030Z AUTO 24005KT 8000 NCD 09/06 Q1027


Station Type Date Time Source
LELC Decoded METAR 2019/02/23 00:30 UTC NOAA

Murcia / San Javier, Spain (LELC) 37-47N 000-48W 3M
Feb 22, 2019 - 07:30 PM EST / 2019.02.23 0030 UTC
Wind: from the WSW (240 degrees) at 6 MPH (5 KT):0
Visibility: 4 mile(s):0
Temperature: 48 F (9 C)
Dew Point: 42 F (6 C)
Relative Humidity: 81%
Pressure (altimeter): 30.33 in. Hg (1027 hPa)
ob: LELC 230030Z AUTO 24005KT 8000 NCD 09/06 Q1027
cycle: 0

Station Type Date Time Source
LELC TAF 2019/02/22 18:27 UTC NOAA

TAF LELC 221700Z 2218/2318 25007KT CAVOK TX20/2312Z TN05/2307Z PROB40
TEMPO 2312/2317 12010KT


Example: see airport list